Terminal Aerodrome Forecast
Issued by NWS

Home | Current Version | Previous Version | Text Only | Print | Product List | Glossary Off
Versions: 1 2 3 4 5 6 7 8 9 10 11 12 13 14 15 16

000
FTUS43 KBIS 251733
TAFDIK
TAF
KDIK 251733Z 2518/2618 02010KT P6SM BKN110
     FM260200 03008KT P6SM SKC
     FM260600 10006KT P6SM SKC
     FM261400 16008KT P6SM SKC=

USA.gov is the U.S. government's official web portal to all federal, state and local government web resources and services.